Time;durP1;ratioP1;P1;durP2;ratioP2;P2;SDS_P1;SDS_P2;PMS_P1;PMS_P2;Temp;Humidity;BMP_temperature;BMP_pressure;BME280_temperature;BME280_humidity;BME280_pressure;Samples;Min_cycle;Max_cycle;Signal;HPM_P1;HPM_P2
2021/07/09 00:01:56;;;;;;;18.92;8.40;;;;;;;20.01;64.40;100562.53;5108429;28;20059;-72
2021/07/09 00:04:23;;;;;;;14.10;8.00;;;;;;;19.98;65.01;100555.66;5092816;28;20062;-73
2021/07/09 00:06:50;;;;;;;19.90;8.10;;;;;;;19.95;64.82;100560.50;5109586;28;20054;-75
2021/07/09 00:09:16;;;;;;;17.75;8.60;;;;;;;19.90;64.86;100562.81;5112348;28;20039;-75
2021/07/09 00:11:45;;;;;;;15.05;8.50;;;;;;;19.85;65.00;100556.09;5094193;28;20380;-73
2021/07/09 00:14:12;;;;;;;13.48;7.65;;;;;;;19.79;65.39;100563.88;5093334;28;20042;-74
2021/07/09 00:16:38;;;;;;;14.20;7.67;;;;;;;19.71;65.31;100554.78;5112523;28;20048;-76
2021/07/09 00:19:05;;;;;;;12.95;8.65;;;;;;;19.64;65.87;100561.75;5111555;28;20039;-74
2021/07/09 00:21:33;;;;;;;15.65;9.55;;;;;;;19.61;65.95;100563.91;5112695;28;20571;-74
2021/07/09 00:24:00;;;;;;;13.70;7.93;;;;;;;19.59;65.86;100556.03;5093397;28;20093;-74
2021/07/09 00:26:27;;;;;;;17.77;8.07;;;;;;;19.56;66.11;100562.56;5111320;28;20441;-72
2021/07/09 00:28:53;;;;;;;17.00;8.60;;;;;;;19.56;66.38;100562.56;5111631;28;20122;-72
2021/07/09 00:31:19;;;;;;;15.68;8.10;;;;;;;19.58;66.20;100558.84;5111955;28;20131;-72
2021/07/09 00:33:45;;;;;;;16.23;8.57;;;;;;;19.56;66.31;100562.56;5112093;28;20047;-72
2021/07/09 00:36:11;;;;;;;18.40;9.15;;;;;;;19.55;66.76;100557.31;5111380;28;20422;-74
2021/07/09 00:38:37;;;;;;;19.35;9.10;;;;;;;19.51;66.66;100556.78;5112253;28;20040;-71
2021/07/09 00:41:02;;;;;;;18.33;8.98;;;;;;;19.51;66.59;100553.25;5108593;28;20040;-74
2021/07/09 00:43:28;;;;;;;14.90;9.02;;;;;;;19.49;66.67;100555.25;5111412;28;20035;-72
2021/07/09 00:45:54;;;;;;;14.30;9.35;;;;;;;19.48;66.77;100559.78;5092447;28;20495;-75
2021/07/09 00:48:20;;;;;;;15.95;8.73;;;;;;;19.46;66.47;100561.78;5112096;28;20080;-73
2021/07/09 00:50:47;;;;;;;13.05;8.88;;;;;;;19.50;66.98;100552.44;5111109;28;20039;-74
2021/07/09 00:53:12;;;;;;;15.40;8.32;;;;;;;19.55;66.63;100554.63;5111524;28;20089;-73
2021/07/09 00:55:38;;;;;;;15.65;8.18;;;;;;;19.58;66.48;100558.84;5093117;28;20071;-74
2021/07/09 00:58:04;;;;;;;12.98;8.82;;;;;;;19.54;66.21;100561.03;5108191;28;20518;-74
2021/07/09 01:00:31;;;;;;;14.73;8.98;;;;;;;19.43;66.50;100555.88;5092612;28;20055;-73
2021/07/09 01:03:03;;;;;;;12.98;8.73;;;;;;;19.36;67.25;100555.66;5111084;28;20063;-72
2021/07/09 01:05:29;;;;;;;13.05;8.75;;;;;;;19.32;67.39;100555.13;5094783;28;20039;-73
2021/07/09 01:07:55;;;;;;;18.35;9.23;;;;;;;19.30;67.10;100550.91;5114874;28;20074;-73
2021/07/09 01:10:21;;;;;;;16.63;8.50;;;;;;;19.28;67.01;100552.88;5115001;28;20046;-73
2021/07/09 01:12:47;;;;;;;23.35;9.85;;;;;;;19.26;67.07;100544.16;5115768;28;20040;-73
2021/07/09 01:15:16;;;;;;;14.05;9.32;;;;;;;19.22;67.10;100544.47;5097340;28;20050;-73
2021/07/09 01:17:42;;;;;;;15.18;9.20;;;;;;;19.21;67.26;100552.66;5114962;28;20060;-73
2021/07/09 01:20:11;;;;;;;16.35;8.75;;;;;;;19.18;67.30;100550.31;5111346;28;20078;-73
2021/07/09 01:22:44;;;;;;;15.48;9.07;;;;;;;19.17;67.45;100548.63;5113240;28;20121;-74
2021/07/09 01:25:13;;;;;;;22.60;9.60;;;;;;;19.16;67.32;100555.78;5115394;28;20047;-73
2021/07/09 01:27:41;;;;;;;18.38;9.55;;;;;;;19.14;67.28;100562.31;5109951;28;20249;-72
2021/07/09 01:30:09;;;;;;;17.08;9.30;;;;;;;19.11;67.41;100550.06;5112200;28;20040;-72
2021/07/09 01:32:35;;;;;;;15.35;9.68;;;;;;;19.08;67.49;100558.41;5097036;28;20091;-75
2021/07/09 01:35:01;;;;;;;16.70;9.68;;;;;;;19.08;67.32;100547.69;5115598;28;20044;-78
2021/07/09 01:37:27;;;;;;;14.32;9.55;;;;;;;19.11;67.75;100557.28;5097232;28;20046;-73
2021/07/09 01:39:53;;;;;;;14.90;10.00;;;;;;;19.11;67.68;100558.09;5097228;28;20027;-74
2021/07/09 01:42:18;;;;;;;16.95;9.75;;;;;;;19.11;67.79;100546.53;5113548;28;20051;-74
2021/07/09 01:44:45;;;;;;;19.48;9.70;;;;;;;19.10;67.58;100551.03;5114561;28;20130;-73
2021/07/09 01:47:11;;;;;;;16.80;9.50;;;;;;;19.05;67.83;100542.63;5114686;28;20069;-73
2021/07/09 01:49:50;;;;;;;17.58;10.15;;;;;;;19.06;67.94;100538.94;5115200;28;20047;-73
2021/07/09 01:52:16;;;;;;;16.65;9.82;;;;;;;19.10;67.81;100539.50;5095511;28;20035;-73
2021/07/09 01:54:41;;;;;;;19.58;10.55;;;;;;;19.11;67.96;100539.31;5097199;28;20055;-74
2021/07/09 01:57:07;;;;;;;17.77;10.02;;;;;;;19.18;67.84;100540.41;5114272;28;20049;-73
2021/07/09 01:59:33;;;;;;;17.77;10.40;;;;;;;19.23;67.75;100548.84;5114636;28;20463;-73
2021/07/09 02:01:59;;;;;;;16.95;10.27;;;;;;;19.27;67.94;100549.38;5095880;28;20617;-73
2021/07/09 02:04:24;;;;;;;16.95;10.80;;;;;;;19.33;68.05;100553.28;5114585;28;20364;-74
2021/07/09 02:06:50;;;;;;;15.93;10.02;;;;;;;19.39;67.72;100550.81;5114592;28;20423;-73
2021/07/09 02:09:16;;;;;;;18.60;10.18;;;;;;;19.43;67.12;100556.72;5096477;28;20130;-73
2021/07/09 02:11:44;;;;;;;21.88;11.13;;;;;;;19.45;67.03;100549.38;5114034;28;20040;-74
2021/07/09 02:14:10;;;;;;;21.30;10.50;;;;;;;19.48;67.17;100548.22;5114228;28;20035;-74
2021/07/09 02:16:36;;;;;;;19.13;9.98;;;;;;;19.48;67.26;100551.75;5113869;28;20508;-74
2021/07/09 02:19:02;;;;;;;18.98;10.55;;;;;;;19.50;67.14;100546.22;5095463;28;20031;-73
2021/07/09 02:21:28;;;;;;;17.95;10.25;;;;;;;19.52;67.38;100542.38;5113809;28;20095;-74
2021/07/09 02:23:54;;;;;;;21.05;11.10;;;;;;;19.53;67.37;100541.38;5113656;28;20055;-74
2021/07/09 02:26:19;;;;;;;17.88;10.82;;;;;;;19.58;67.59;100542.75;5113780;28;20032;-73
2021/07/09 02:28:45;;;;;;;23.40;10.85;;;;;;;19.62;67.74;100544.13;5113995;28;20107;-74
2021/07/09 02:31:11;;;;;;;23.33;9.80;;;;;;;19.67;67.77;100547.19;5113750;28;20126;-71
2021/07/09 02:33:37;;;;;;;23.45;10.57;;;;;;;19.72;67.79;100544.88;5114450;28;20043;-73
2021/07/09 02:36:03;;;;;;;16.83;11.02;;;;;;;19.78;67.71;100543.41;5113445;28;20456;-74
2021/07/09 02:38:29;;;;;;;27.23;12.02;;;;;;;19.86;67.49;100543.50;5095297;28;20084;-74
2021/07/09 02:40:55;;;;;;;22.02;10.70;;;;;;;19.94;67.50;100545.38;5113467;28;20036;-74
2021/07/09 02:43:20;;;;;;;22.35;11.07;;;;;;;19.96;67.37;100548.75;5113026;28;20036;-74
2021/07/09 02:45:46;;;;;;;21.63;11.65;;;;;;;20.02;67.24;100551.63;5103146;28;20047;-74
2021/07/09 02:48:12;;;;;;;24.38;11.77;;;;;;;20.09;67.25;100551.88;5114154;28;20075;-73
2021/07/09 02:50:38;;;;;;;22.10;11.07;;;;;;;20.12;67.52;100551.53;5113421;28;20587;-73
2021/07/09 02:53:03;;;;;;;20.63;12.93;;;;;;;20.13;66.75;100555.06;5113004;28;20040;-73
2021/07/09 02:55:29;;;;;;;25.23;12.43;;;;;;;20.19;66.88;100551.75;5113676;28;20044;-75
2021/07/09 02:57:55;;;;;;;23.38;12.30;;;;;;;20.30;66.61;100556.00;5113708;28;20055;-75
2021/07/09 03:00:21;;;;;;;23.65;12.75;;;;;;;20.36;65.90;100552.66;5104320;28;20035;-77
2021/07/09 03:02:47;;;;;;;37.05;13.80;;;;;;;20.45;65.37;100557.09;5113894;28;20044;-74
2021/07/09 03:05:13;;;;;;;24.85;12.30;;;;;;;20.53;64.88;100546.34;5113686;28;20514;-75
2021/07/09 03:07:39;;;;;;;28.13;12.52;;;;;;;20.62;65.08;100547.25;5094329;28;20083;-75
2021/07/09 03:10:05;;;;;;;22.77;12.77;;;;;;;20.71;65.30;100549.94;5091680;28;20131;-74
2021/07/09 03:12:31;;;;;;;27.13;12.70;;;;;;;20.78;65.62;100543.78;5081960;28;20067;-74
2021/07/09 03:14:57;;;;;;;22.08;13.57;;;;;;;20.85;66.11;100547.50;5110364;28;20154;-74
2021/07/09 03:17:23;;;;;;;31.05;13.55;;;;;;;20.94;66.26;100544.84;5112733;28;20118;-74
2021/07/09 03:19:49;;;;;;;24.70;13.68;;;;;;;21.01;66.83;100545.88;5110202;28;20424;-76
2021/07/09 03:22:14;;;;;;;25.65;13.73;;;;;;;21.06;67.28;100548.91;5105688;28;20043;-76
2021/07/09 03:24:40;;;;;;;24.95;13.43;;;;;;;21.11;67.20;100551.06;5094298;28;20050;-75
2021/07/09 03:27:07;;;;;;;27.60;13.45;;;;;;;21.21;67.03;100546.41;5111875;28;20047;-75
2021/07/09 03:29:33;;;;;;;27.50;14.10;;;;;;;21.27;67.03;100552.94;5112324;28;20036;-75
2021/07/09 03:31:58;;;;;;;24.50;13.85;;;;;;;21.37;66.45;100552.78;5112636;28;20098;-76
2021/07/09 03:34:24;;;;;;;26.52;13.82;;;;;;;21.43;66.15;100552.97;5095266;28;20051;-74
2021/07/09 03:36:51;;;;;;;24.55;14.15;;;;;;;21.53;66.10;100549.28;5095243;28;20039;-77
2021/07/09 03:39:17;;;;;;;23.15;14.25;;;;;;;21.58;65.90;100552.31;5112369;28;20048;-77
2021/07/09 03:41:43;;;;;;;27.05;14.95;;;;;;;21.64;65.69;100549.78;5093424;28;20100;-76
2021/07/09 03:44:10;;;;;;;24.27;14.68;;;;;;;21.74;65.25;100552.31;5112608;28;20384;-75
2021/07/09 03:46:38;;;;;;;28.13;14.38;;;;;;;21.80;65.33;100556.19;5113055;28;20045;-74
2021/07/09 03:49:03;;;;;;;31.15;13.25;;;;;;;21.91;64.03;100555.81;5104416;28;20055;-75
2021/07/09 03:51:29;;;;;;;29.52;13.95;;;;;;;22.06;64.21;100555.97;5103425;28;20111;-77
2021/07/09 03:53:56;;;;;;;28.95;13.88;;;;;;;22.17;62.93;100551.22;5057516;28;20085;-80
2021/07/09 03:56:22;;;;;;;28.02;13.38;;;;;;;22.30;62.76;100551.53;5091180;28;20046;-77
2021/07/09 03:58:48;;;;;;;30.88;13.57;;;;;;;22.42;63.00;100550.16;5091011;28;20590;-76
2021/07/09 04:01:14;;;;;;;27.92;13.75;;;;;;;22.57;62.45;100544.03;5110077;28;20118;-76
2021/07/09 04:03:40;;;;;;;29.55;13.82;;;;;;;23.40;60.95;100542.53;5111446;28;20419;-76
2021/07/09 04:06:06;;;;;;;28.50;13.05;;;;;;;25.33;55.39;100536.34;5092977;28;20124;-76
2021/07/09 04:08:32;;;;;;;26.65;13.13;;;;;;;26.99;51.32;100540.28;5110979;28;20050;-74
2021/07/09 04:10:58;;;;;;;23.88;12.73;;;;;;;28.17;48.27;100536.13;5112238;28;20051;-78
2021/07/09 04:13:23;;;;;;;27.05;12.45;;;;;;;29.21;45.26;100535.25;5110451;28;20051;-78
2021/07/09 04:15:49;;;;;;;34.47;12.82;;;;;;;30.14;42.99;100539.03;5093352;28;20403;-75
2021/07/09 04:18:16;;;;;;;27.27;13.40;;;;;;;31.26;39.64;100544.34;5110459;28;20046;-75
2021/07/09 04:20:42;;;;;;;24.50;13.63;;;;;;;31.24;38.26;100539.13;5111115;28;20043;-75
2021/07/09 04:23:08;;;;;;;21.45;12.48;;;;;;;31.85;37.80;100546.31;5111505;28;20052;-79
2021/07/09 04:25:34;;;;;;;23.05;12.20;;;;;;;33.03;36.05;100529.56;5093341;28;20043;-78
2021/07/09 04:28:00;;;;;;;21.48;11.00;;;;;;;33.92;33.74;100532.69;5111357;28;20063;-77
2021/07/09 04:30:26;;;;;;;22.43;10.73;;;;;;;34.86;32.39;100523.63;5111753;28;20047;-75
2021/07/09 04:32:52;;;;;;;21.42;10.05;;;;;;;35.59;31.49;100531.44;5093217;28;20136;-76
2021/07/09 04:35:18;;;;;;;22.73;10.07;;;;;;;36.14;30.25;100526.56;5093520;28;20632;-78
2021/07/09 04:37:44;;;;;;;17.02;9.82;;;;;;;36.46;30.36;100513.75;5093797;28;20074;-77
2021/07/09 04:40:10;;;;;;;20.83;9.70;;;;;;;36.75;29.33;100512.16;5093081;28;20073;-79
2021/07/09 04:42:36;;;;;;;20.35;11.90;;;;;;;37.42;28.84;100510.56;5111993;28;20126;-78
2021/07/09 04:45:04;;;;;;;25.33;10.50;;;;;;;37.46;28.70;100518.00;5076708;28;20092;-79
2021/07/09 04:47:29;;;;;;;22.77;9.40;;;;;;;37.92;27.90;100516.25;5111916;28;20093;-76
2021/07/09 04:49:55;;;;;;;17.13;9.33;;;;;;;38.57;26.96;100515.44;5111484;28;20035;-76
2021/07/09 04:52:21;;;;;;;23.35;9.75;;;;;;;38.75;26.24;100512.03;5101718;28;20780;-76
2021/07/09 04:54:47;;;;;;;19.08;9.10;;;;;;;39.38;25.11;100502.13;5084564;28;20079;-76
2021/07/09 04:57:15;;;;;;;17.27;8.68;;;;;;;39.50;25.18;100510.00;5111254;28;20066;-75
2021/07/09 04:59:41;;;;;;;17.88;8.30;;;;;;;39.83;24.69;100506.63;5093600;28;20043;-75
2021/07/09 05:02:07;;;;;;;19.35;8.63;;;;;;;40.54;23.68;100504.06;5110001;28;20040;-74
2021/07/09 05:04:33;;;;;;;17.48;7.85;;;;;;;41.17;22.97;100496.47;5092452;28;20028;-77
2021/07/09 05:06:59;;;;;;;12.85;7.90;;;;;;;41.80;22.26;100502.50;5109719;28;20413;-76
2021/07/09 05:09:25;;;;;;;16.38;7.90;;;;;;;42.40;21.64;100500.72;5110787;28;20123;-78
2021/07/09 05:11:52;;;;;;;12.65;7.75;;;;;;;42.89;20.83;100499.00;5111111;28;20044;-75
2021/07/09 05:14:18;;;;;;;15.75;7.10;;;;;;;43.23;20.45;100507.94;5102990;28;20077;-76
2021/07/09 05:16:43;;;;;;;;;;;;;;;43.22;20.38;100509.91;5110906;28;20484;-83
2021/07/09 05:19:09;;;;;;;15.75;7.35;;;;;;;43.71;19.85;100509.16;5093182;28;19926;-76
2021/07/09 05:21:35;;;;;;;;;;;;;;;44.21;19.16;100511.59;5111240;28;20075;-75
2021/07/09 05:24:05;;;;;;;10.32;6.60;;;;;;;44.40;18.82;100507.72;5092837;28;19927;-78
2021/07/09 05:26:31;;;;;;;19.60;7.45;;;;;;;44.41;18.73;100506.56;5092504;28;20040;-76
2021/07/09 05:28:57;;;;;;;18.48;7.20;;;;;;;44.56;18.55;100506.06;5076141;28;20043;-76
2021/07/09 05:31:23;;;;;;;12.02;6.88;;;;;;;43.89;18.85;100502.50;5076016;28;20036;-75
2021/07/09 05:33:48;;;;;;;15.18;6.55;;;;;;;43.71;18.56;100504.41;5091757;28;20043;-77
2021/07/09 05:36:14;;;;;;;13.52;5.63;;;;;;;44.43;18.15;100490.34;5085444;28;20035;-75
2021/07/09 05:38:40;;;;;;;18.20;10.35;;;;;;;44.24;17.82;100494.22;5091911;28;20039;-80
2021/07/09 05:41:06;;;;;;;10.10;5.50;;;;;;;44.27;18.09;100484.38;5075910;28;20039;-77
2021/07/09 05:43:32;;;;;;;8.48;5.70;;;;;;;43.87;17.73;100488.06;5110835;28;20518;-77
2021/07/09 05:45:59;;;;;;;11.07;8.85;;;;;;;43.56;17.98;100480.59;5092936;28;20050;-81
2021/07/09 05:48:25;;;;;;;8.80;5.10;;;;;;;43.89;17.65;100493.31;5076307;28;20039;-79
2021/07/09 05:50:51;;;;;;;8.32;4.95;;;;;;;43.30;16.78;100474.88;5060383;28;20085;-79
2021/07/09 05:53:16;;;;;;;8.38;5.28;;;;;;;43.53;16.75;100486.81;5076939;28;20371;-76
2021/07/09 05:55:43;;;;;;;10.63;4.82;;;;;;;43.93;16.52;100489.59;5096182;28;20088;-77
2021/07/09 05:58:09;;;;;;;9.45;4.80;;;;;;;44.75;16.04;100491.81;5113603;28;20118;-76
2021/07/09 06:00:35;;;;;;;15.82;5.00;;;;;;;45.72;15.30;100483.16;5095678;28;20044;-77
2021/07/09 06:03:02;;;;;;;8.68;4.57;;;;;;;44.43;15.77;100490.34;5114604;28;20032;-76
2021/07/09 06:05:27;;;;;;;9.80;4.53;;;;;;;45.14;14.62;100480.75;5096251;28;20077;-77
2021/07/09 06:07:53;;;;;;;6.53;4.50;;;;;;;45.80;14.49;100478.66;5079664;28;20135;-75
2021/07/09 06:10:20;;;;;;;10.18;4.75;;;;;;;46.42;14.07;100474.28;5113484;28;20077;-75
2021/07/09 06:12:45;;;;;;;7.03;4.50;;;;;;;45.67;14.04;100480.53;5113669;28;20044;-78
2021/07/09 06:15:12;;;;;;;13.68;11.98;;;;;;;45.39;14.59;100478.19;5095195;28;20046;-77
2021/07/09 06:17:38;;;;;;;8.35;4.60;;;;;;;45.92;14.58;100481.56;5114540;28;20459;-77
2021/07/09 06:20:22;;;;;;;7.65;4.15;;;;;;;47.05;13.55;100481.78;5090516;28;20046;-81
2021/07/09 06:22:48;;;;;;;6.90;4.30;;;;;;;47.90;12.86;100476.59;5077117;28;20039;-83
2021/07/09 06:25:15;;;;;;;12.68;5.53;;;;;;;47.73;12.81;100474.88;5095665;28;20642;-80
2021/07/09 06:27:42;;;;;;;11.63;4.40;;;;;;;48.11;12.80;100464.41;5054628;28;20134;-84
2021/07/09 06:30:08;;;;;;;6.35;4.00;;;;;;;47.85;12.49;100473.25;5068394;28;20514;-79
2021/07/09 06:32:34;;;;;;;6.35;3.80;;;;;;;47.15;12.88;100464.53;5075366;28;20496;-78
2021/07/09 06:35:00;;;;;;;6.28;4.22;;;;;;;46.77;12.72;100471.22;5109202;28;20047;-76
2021/07/09 06:37:27;;;;;;;8.77;4.30;;;;;;;47.20;12.45;100457.09;5095660;28;20062;-75
2021/07/09 06:39:52;;;;;;;8.60;4.38;;;;;;;46.64;12.68;100469.50;5113361;28;20412;-78
2021/07/09 06:42:18;;;;;;;7.88;6.75;;;;;;;47.33;13.08;100455.09;5113005;28;20044;-77
2021/07/09 06:44:44;;;;;;;6.53;4.47;;;;;;;48.72;11.70;100454.97;5113736;28;20116;-80
2021/07/09 06:47:10;;;;;;;8.38;4.50;;;;;;;48.08;12.06;100460.34;5114000;28;20099;-80
2021/07/09 06:49:36;;;;;;;7.30;4.20;;;;;;;48.27;11.83;100456.09;5083363;28;20035;-82
2021/07/09 06:52:02;;;;;;;5.78;4.03;;;;;;;47.23;11.77;100457.19;5095230;28;20475;-77
2021/07/09 06:54:28;;;;;;;9.90;4.25;;;;;;;47.46;12.11;100460.38;5078430;28;20047;-85
2021/07/09 06:56:54;;;;;;;6.60;3.92;;;;;;;46.78;12.03;100461.63;5079536;28;20047;-82
2021/07/09 06:59:21;;;;;;;7.45;3.50;;;;;;;47.57;12.15;100457.09;5062490;28;20032;-84
2021/07/09 07:01:47;;;;;;;5.40;4.03;;;;;;;46.95;12.60;100462.63;5080441;28;20051;-82
2021/07/09 07:04:14;;;;;;;7.65;4.13;;;;;;;48.23;11.60;100461.59;5078871;28;20031;-82
2021/07/09 07:06:40;;;;;;;5.10;3.72;;;;;;;48.38;11.01;100460.03;5080571;28;20083;-82
2021/07/09 07:09:06;;;;;;;6.03;4.18;;;;;;;48.63;11.19;100462.75;5094247;28;20108;-78
2021/07/09 07:11:32;;;;;;;6.90;4.40;;;;;;;48.47;10.56;100453.41;5096060;28;20055;-83
2021/07/09 07:13:58;;;;;;;6.22;4.35;;;;;;;47.55;11.22;100459.47;5078232;28;20045;-77
2021/07/09 07:16:25;;;;;;;4.90;4.20;;;;;;;46.90;11.42;100451.66;5072821;28;20032;-79
2021/07/09 07:18:51;;;;;;;7.35;4.57;;;;;;;47.26;11.72;100448.09;5091341;28;20056;-78
2021/07/09 07:21:18;;;;;;;7.40;4.10;;;;;;;47.91;11.00;100455.00;5093072;28;20507;-79
2021/07/09 07:23:44;;;;;;;4.75;4.20;;;;;;;47.33;11.54;100453.09;5082924;28;20035;-83
2021/07/09 07:26:14;;;;;;;6.10;4.00;;;;;;;46.89;11.63;100444.41;5055639;28;20031;-76
2021/07/09 07:28:40;;;;;;;8.75;4.47;;;;;;;46.67;11.80;100455.63;5084967;28;20048;-78
2021/07/09 07:31:08;;;;;;;4.97;4.13;;;;;;;46.56;11.51;100450.81;5066818;28;20039;-79
2021/07/09 07:33:35;;;;;;;8.00;4.20;;;;;;;47.01;12.03;100447.22;5085218;28;20040;-82
2021/07/09 07:36:00;;;;;;;13.77;4.80;;;;;;;45.76;12.33;100452.53;5102700;28;20173;-76
2021/07/09 07:38:26;;;;;;;8.10;4.50;;;;;;;46.47;12.09;100457.31;5077157;28;20052;-78
2021/07/09 07:40:52;;;;;;;7.13;4.70;;;;;;;46.89;11.35;100455.59;5103919;28;20044;-79
2021/07/09 07:43:18;;;;;;;6.30;4.50;;;;;;;47.51;11.20;100452.91;5113282;28;20043;-74
2021/07/09 07:45:44;;;;;;;5.75;4.22;;;;;;;47.94;10.75;100445.88;5077257;28;20044;-75
2021/07/09 07:48:11;;;;;;;4.97;4.10;;;;;;;47.96;10.88;100443.53;5095101;28;20487;-78
2021/07/09 07:50:37;;;;;;;6.55;4.70;;;;;;;46.16;12.29;100447.34;5083387;28;20055;-85
2021/07/09 07:53:03;;;;;;;11.27;4.85;;;;;;;47.44;11.73;100448.66;5062705;28;20070;-83
2021/07/09 07:55:29;;;;;;;6.97;4.50;;;;;;;48.65;11.19;100449.16;5071996;28;20372;-76
2021/07/09 07:57:55;;;;;;;7.55;4.47;;;;;;;48.32;11.12;100441.81;5093606;28;20036;-78
2021/07/09 08:00:21;;;;;;;5.10;4.10;;;;;;;48.31;11.07;100440.16;5112889;28;20066;-79
2021/07/09 08:02:47;;;;;;;7.93;4.13;;;;;;;48.35;10.90;100446.69;5112142;28;20415;-76
2021/07/09 08:05:14;;;;;;;7.78;4.50;;;;;;;47.93;10.90;100435.81;5065794;28;20036;-75
2021/07/09 08:07:41;;;;;;;7.78;5.47;;;;;;;47.02;12.01;100440.44;5102496;28;20542;-79
2021/07/09 08:10:08;;;;;;;8.60;4.50;;;;;;;46.49;11.93;100442.97;5090827;28;20542;-83
2021/07/09 08:12:34;;;;;;;5.85;4.35;;;;;;;46.67;11.44;100432.41;5088747;28;20039;-85
2021/07/09 08:15:00;;;;;;;8.70;4.53;;;;;;;46.02;12.18;100430.84;5040591;28;20032;-79
2021/07/09 08:17:26;;;;;;;8.57;4.85;;;;;;;45.03;12.18;100429.19;5042277;28;20035;-78
2021/07/09 08:19:52;;;;;;;10.20;5.03;;;;;;;44.81;12.85;100428.25;5073650;28;20055;-78
2021/07/09 08:22:18;;;;;;;6.70;4.47;;;;;;;46.74;11.68;100423.50;5076856;28;20076;-77
2021/07/09 08:24:45;;;;;;;7.97;5.20;;;;;;;46.99;10.83;100421.53;5089277;28;20508;-80
2021/07/09 08:27:11;;;;;;;8.77;5.05;;;;;;;47.07;10.99;100417.00;5080764;28;20130;-76
2021/07/09 08:29:36;;;;;;;9.35;5.28;;;;;;;47.06;11.06;100416.19;5094148;28;20124;-77
2021/07/09 08:32:03;;;;;;;11.77;10.68;;;;;;;47.19;11.21;100419.84;5093862;28;20035;-81
2021/07/09 08:34:29;;;;;;;10.57;6.00;;;;;;;47.40;10.87;100408.50;5112021;28;20044;-79
2021/07/09 08:36:54;;;;;;;8.35;5.30;;;;;;;47.18;10.53;100400.59;5112818;28;20051;-77
2021/07/09 08:39:20;;;;;;;11.30;5.25;;;;;;;45.94;11.55;100405.72;5094264;28;20040;-77
2021/07/09 08:41:48;;;;;;;8.57;5.35;;;;;;;45.27;12.47;100399.88;5112564;28;20043;-77
2021/07/09 08:44:14;;;;;;;9.63;5.63;;;;;;;46.50;11.75;100397.84;5095589;28;20054;-79
2021/07/09 08:46:41;;;;;;;7.13;5.57;;;;;;;46.41;11.26;100401.88;5062122;28;20044;-83
2021/07/09 08:49:08;;;;;;;9.23;5.47;;;;;;;47.08;11.28;100407.47;5076256;28;20043;-80
2021/07/09 08:51:35;;;;;;;7.15;5.10;;;;;;;48.00;10.87;100391.16;5066284;28;20040;-82
2021/07/09 08:54:02;;;;;;;6.72;5.32;;;;;;;47.75;10.46;100390.38;5014443;28;20056;-80
2021/07/09 08:56:36;;;;;;;6.43;4.90;;;;;;;46.42;11.30;100395.94;5071675;28;20051;-81
2021/07/09 08:59:03;;;;;;;5.57;5.03;;;;;;;46.40;11.51;100377.88;5054936;28;20056;-75
2021/07/09 09:01:28;;;;;;;7.70;5.28;;;;;;;46.31;11.48;100383.53;5069319;28;20086;-78
2021/07/09 09:04:07;;;;;;;10.93;5.60;;;;;;;45.28;12.53;100385.56;5070784;28;20047;-79
2021/07/09 09:06:33;;;;;;;8.10;5.22;;;;;;;44.72;12.71;100386.38;5068699;28;20505;-79
2021/07/09 09:08:59;;;;;;;7.03;5.68;;;;;;;45.17;12.55;100389.88;5051431;28;20090;-80
2021/07/09 09:11:24;;;;;;;8.90;5.50;;;;;;;45.89;12.10;100381.56;5051040;28;20135;-77
2021/07/09 09:13:50;;;;;;;8.13;5.47;;;;;;;45.53;12.70;100381.00;5038905;28;20056;-84
2021/07/09 09:16:16;;;;;;;10.27;6.93;;;;;;;44.74;12.81;100384.09;5032480;28;20098;-77
2021/07/09 09:18:44;;;;;;;8.15;6.10;;;;;;;43.85;13.41;100387.22;5051880;28;20076;-78
2021/07/09 09:21:21;;;;;;;11.50;5.70;;;;;;;44.20;13.44;100376.09;5051967;28;20147;-80
2021/07/09 09:23:51;;;;;;;8.48;5.72;;;;;;;43.45;13.81;100376.13;5068890;28;20056;-79
2021/07/09 09:26:43;;;;;;;12.52;5.65;;;;;;;45.20;13.13;100373.28;5053831;28;20105;-79
2021/07/09 09:29:14;;;;;;;9.10;5.70;;;;;;;45.97;12.24;100365.91;5073003;28;20119;-82
2021/07/09 09:31:40;;;;;;;10.88;6.40;;;;;;;45.34;12.63;100369.41;5061333;28;20051;-80
2021/07/09 09:34:07;;;;;;;9.25;7.13;;;;;;;45.31;12.46;100368.09;5104102;28;20042;-78
2021/07/09 09:36:33;;;;;;;8.75;6.50;;;;;;;45.45;13.10;100367.88;5115794;28;20046;-78
2021/07/09 09:39:02;;;;;;;11.85;6.07;;;;;;;45.40;13.05;100354.06;5081025;28;20035;-77
2021/07/09 09:41:29;;;;;;;9.60;6.22;;;;;;;44.99;13.33;100344.41;5116040;28;20092;-79
2021/07/09 09:44:12;;;;;;;10.40;6.57;;;;;;;44.97;13.51;100352.34;5075318;28;20040;-83
2021/07/09 09:46:38;;;;;;;8.63;6.38;;;;;;;44.61;13.68;100346.00;5062687;28;20048;-83
2021/07/09 09:49:05;;;;;;;10.98;6.40;;;;;;;42.88;14.68;100344.28;5061295;28;20043;-78
2021/07/09 09:51:34;;;;;;;9.77;6.05;;;;;;;42.40;15.45;100336.63;5094407;28;20391;-79
2021/07/09 09:54:04;;;;;;;10.80;7.88;;;;;;;42.79;15.36;100343.44;5078507;28;20044;-78
2021/07/09 09:56:38;;;;;;;13.77;7.10;;;;;;;43.40;15.02;100340.09;5115261;28;20158;-78
2021/07/09 09:59:15;;;;;;;13.15;6.55;;;;;;;43.28;14.44;100347.09;5114162;28;20032;-79
2021/07/09 10:01:54;;;;;;;8.93;6.43;;;;;;;41.86;15.41;100340.13;5097181;28;20381;-79
2021/07/09 10:04:21;;;;;;;9.65;6.30;;;;;;;42.27;15.36;100330.84;5063857;28;20539;-81
2021/07/09 10:06:48;;;;;;;9.45;5.82;;;;;;;41.92;16.02;100335.28;5080669;28;20075;-80
2021/07/09 10:09:15;;;;;;;9.10;6.53;;;;;;;42.40;15.12;100337.47;5098231;28;20047;-78
2021/07/09 10:11:42;;;;;;;6.95;5.60;;;;;;;41.72;15.31;100321.53;5101453;28;20052;-78
2021/07/09 10:14:13;;;;;;;13.65;6.20;;;;;;;40.70;16.71;100324.38;5117333;28;20036;-75
2021/07/09 10:16:40;;;;;;;9.95;7.13;;;;;;;41.37;16.08;100321.13;5106320;28;20044;-81
2021/07/09 10:19:08;;;;;;;13.07;5.97;;;;;;;41.84;16.35;100314.59;5110017;28;20066;-79
2021/07/09 10:21:34;;;;;;;12.82;6.60;;;;;;;41.80;16.45;100316.34;5115217;28;20031;-80
2021/07/09 10:24:01;;;;;;;10.13;6.80;;;;;;;41.64;15.84;100308.38;5115376;28;20617;-77
2021/07/09 10:26:27;;;;;;;9.13;6.43;;;;;;;41.16;16.64;100317.97;5096977;28;20600;-79
2021/07/09 10:29:26;;;;;;;9.20;6.55;;;;;;;40.43;16.85;100309.31;5080220;28;20138;-77
2021/07/09 10:31:53;;;;;;;9.07;6.30;;;;;;;39.88;18.08;100310.72;5017906;28;20045;-78
2021/07/09 10:34:22;;;;;;;9.55;6.72;;;;;;;40.49;17.35;100301.72;5031266;28;20520;-82
2021/07/09 10:36:53;;;;;;;9.52;6.72;;;;;;;40.20;17.89;100303.56;4999282;28;20125;-82
2021/07/09 10:39:39;;;;;;;13.65;7.03;;;;;;;40.54;17.68;100290.53;4982287;28;20044;-78
2021/07/09 10:42:39;;;;;;;14.45;7.15;;;;;;;40.50;17.84;100293.09;5011982;28;20159;-81
2021/07/09 10:45:08;;;;;;;10.38;6.60;;;;;;;40.19;17.61;100298.34;5026071;28;20053;-78
2021/07/09 10:47:39;;;;;;;11.73;7.35;;;;;;;40.09;18.03;100286.28;5027878;28;20041;-80
2021/07/09 10:50:10;;;;;;;11.60;6.97;;;;;;;39.62;18.10;100290.84;5031547;28;20080;-78
2021/07/09 10:52:59;;;;;;;11.32;6.57;;;;;;;39.15;18.95;100285.06;5014464;28;20041;-78
2021/07/09 10:55:25;;;;;;;17.42;7.55;;;;;;;39.33;18.75;100272.41;5025790;28;20140;-82
2021/07/09 10:58:19;;;;;;;13.85;6.95;;;;;;;39.48;18.67;100276.91;5030875;28;20476;-80
2021/07/09 11:00:49;;;;;;;14.40;7.30;;;;;;;38.44;18.79;100277.22;4993158;28;20038;-76
2021/07/09 11:03:41;;;;;;;12.38;7.43;;;;;;;37.86;19.53;100270.50;5020874;28;20101;-81
2021/07/09 11:06:20;;;;;;;11.15;6.85;;;;;;;38.05;19.79;100267.06;4979253;28;20144;-78
2021/07/09 11:08:52;;;;;;;12.15;6.70;;;;;;;38.32;19.95;100282.31;5076520;28;20056;-79
2021/07/09 11:11:33;;;;;;;10.48;7.35;;;;;;;38.25;20.26;100277.09;5079333;28;20097;-80
2021/07/09 11:14:07;;;;;;;12.07;6.72;;;;;;;38.27;19.52;100265.75;5093818;28;20036;-78
2021/07/09 11:16:35;;;;;;;9.88;6.70;;;;;;;38.40;19.88;100267.88;5084834;28;20036;-78
2021/07/09 11:19:04;;;;;;;9.93;6.43;;;;;;;38.59;19.75;100264.38;5083974;28;20079;-78
2021/07/09 11:21:31;;;;;;;13.82;6.57;;;;;;;38.60;19.71;100269.59;5092202;28;20039;-82